createdAt,value
2019-03-01T00:05:18.506Z,22.07
2019-03-01T00:10:33.459Z,25.15
2019-03-01T00:16:38.899Z,12.60
2019-03-01T00:22:11.749Z,16.17
2019-03-01T00:27:55.304Z,14.95
2019-03-01T00:33:23.393Z,20.55
2019-03-01T00:38:55.607Z,18.73
2019-03-01T00:44:24.718Z,20.40
2019-03-01T00:49:26.797Z,20.37
2019-03-01T00:54:28.874Z,22.73
2019-03-01T00:59:31.005Z,19.02
2019-03-01T01:04:33.226Z,25.48
2019-03-01T01:09:35.330Z,22.30
2019-03-01T01:14:37.471Z,17.85
2019-03-01T01:19:39.627Z,21.27
2019-03-01T01:24:41.700Z,18.75
2019-03-01T01:29:43.814Z,20.48
2019-03-01T01:34:45.936Z,15.30
2019-03-01T01:39:48.004Z,18.80
2019-03-01T01:44:50.061Z,19.15
2019-03-01T01:49:52.083Z,21.55
2019-03-01T01:54:54.126Z,15.05
2019-03-01T01:59:56.227Z,15.08
2019-03-01T02:04:58.388Z,15.83
2019-03-01T02:10:00.402Z,17.02
2019-03-01T02:15:02.940Z,14.60
2019-03-01T02:20:05.285Z,13.13
2019-03-01T02:25:08.620Z,13.48
2019-03-01T02:30:13.555Z,10.85
2019-03-01T02:35:25.769Z,10.38
2019-03-01T02:40:27.883Z,22.58
2019-03-01T02:45:30.007Z,10.20
2019-03-01T02:50:32.115Z,12.93
2019-03-01T02:55:34.409Z,9.78
2019-03-01T03:00:36.819Z,10.63
2019-03-01T03:05:55.933Z,8.40
2019-03-01T03:10:57.997Z,9.78
2019-03-01T03:16:00.598Z,9.33
2019-03-01T03:21:02.718Z,9.85
2019-03-01T03:26:04.784Z,14.53
2019-03-01T03:31:06.920Z,12.18
2019-03-01T03:36:08.981Z,10.63
2019-03-01T03:41:11.623Z,8.33
2019-03-01T03:46:13.726Z,12.60
2019-03-01T03:51:15.865Z,12.73
2019-03-01T03:56:18.127Z,11.63
2019-03-01T04:01:20.237Z,15.08
2019-03-01T04:06:22.283Z,14.25
2019-03-01T04:11:24.316Z,17.07
2019-03-01T04:16:26.793Z,16.87
2019-03-01T04:21:28.900Z,18.82
2019-03-01T04:26:31.071Z,18.67
2019-03-01T04:31:33.251Z,20.15
2019-03-01T04:36:35.332Z,23.52
2019-03-01T04:41:37.341Z,19.32
2019-03-01T04:46:39.346Z,18.70
2019-03-01T04:51:41.714Z,24.32
2019-03-01T04:56:43.824Z,15.15
2019-03-01T05:01:45.883Z,19.40
2019-03-01T05:06:47.961Z,21.25
2019-03-01T05:11:50.039Z,23.10
2019-03-01T05:16:52.164Z,18.02
2019-03-01T05:21:54.305Z,23.45
2019-03-01T05:26:56.412Z,25.50
2019-03-01T05:31:58.433Z,19.92
2019-03-01T05:37:00.516Z,24.15
2019-03-01T05:42:02.599Z,23.25
2019-03-01T05:47:04.684Z,25.68
2019-03-01T05:52:06.725Z,21.73
2019-03-01T05:57:09.194Z,25.77
2019-03-01T06:02:56.559Z,21.57
2019-03-01T06:08:37.597Z,24.92
2019-03-01T06:14:26.697Z,26.10
2019-03-01T06:19:50.184Z,20.95
2019-03-01T06:25:08.618Z,25.12
2019-03-01T06:30:32.761Z,23.05
2019-03-01T06:36:05.027Z,27.87
2019-03-01T06:42:19.642Z,25.95
2019-03-01T06:47:38.183Z,27.02
2019-03-01T06:52:40.762Z,30.52
2019-03-01T06:57:42.877Z,25.43
2019-03-01T07:02:45.783Z,21.73
2019-03-01T07:07:47.920Z,25.88
2019-03-01T07:12:50.059Z,22.90
2019-03-01T07:17:52.209Z,22.48
2019-03-01T07:22:54.354Z,22.07
2019-03-01T07:27:56.394Z,23.27
2019-03-01T07:32:58.557Z,20.10
2019-03-01T07:38:00.605Z,22.50
2019-03-01T07:43:03.908Z,21.68
2019-03-01T07:48:06.584Z,19.70
2019-03-01T07:53:08.683Z,16.20
2019-03-01T07:58:10.829Z,23.12
2019-03-01T08:03:15.120Z,24.35
2019-03-01T08:08:16.969Z,16.15
2019-03-01T08:13:19.367Z,19.90
2019-03-01T08:18:21.800Z,19.73
2019-03-01T08:23:24.022Z,21.90
2019-03-01T08:28:26.127Z,17.17
2019-03-01T08:33:28.180Z,18.80
2019-03-01T08:38:30.570Z,24.15
2019-03-01T08:43:32.683Z,20.60
2019-03-01T08:48:34.897Z,17.73
2019-03-01T08:53:37.248Z,21.95
2019-03-01T08:58:41.574Z,14.78
2019-03-01T09:03:50.342Z,16.57
2019-03-01T09:08:52.685Z,14.65
2019-03-01T09:13:54.813Z,16.10
2019-03-01T09:18:57.048Z,17.02
2019-03-01T09:23:59.103Z,13.68
2019-03-01T09:29:01.236Z,14.68
2019-03-01T09:34:03.451Z,14.70
2019-03-01T09:39:08.387Z,15.58
2019-03-01T09:44:10.506Z,12.03
2019-03-01T09:49:12.558Z,15.03
2019-03-01T09:54:14.669Z,17.80
2019-03-01T09:59:16.669Z,12.85
2019-03-01T10:04:18.776Z,16.85
2019-03-01T10:09:21.444Z,15.90
2019-03-01T10:14:26.469Z,13.68
2019-03-01T10:19:28.597Z,10.45
2019-03-01T10:24:30.646Z,12.35
2019-03-01T10:29:32.754Z,10.95
2019-03-01T10:34:34.887Z,13.48
2019-03-01T10:39:37.318Z,14.58
2019-03-01T10:44:39.426Z,11.10
2019-03-01T10:49:41.619Z,7.62
2019-03-01T10:54:43.688Z,9.63
2019-03-01T10:59:45.746Z,10.03
2019-03-01T11:04:47.839Z,7.28
2019-03-01T11:09:49.882Z,8.10
2019-03-01T11:14:51.961Z,6.08
2019-03-01T11:19:54.053Z,6.72
2019-03-01T11:24:56.156Z,4.72
2019-03-01T11:29:58.240Z,5.78
2019-03-01T11:35:00.588Z,5.05
2019-03-01T11:40:03.677Z,6.72
2019-03-01T11:45:06.984Z,5.90
2019-03-01T11:50:12.004Z,9.45
2019-03-01T11:55:14.162Z,8.93
2019-03-01T12:00:18.166Z,8.25
2019-03-01T12:05:20.638Z,11.33
2019-03-01T12:10:24.948Z,10.40
2019-03-01T12:15:39.712Z,10.08
2019-03-01T12:20:33.171Z,9.33
2019-03-01T12:25:35.215Z,13.65
2019-03-01T12:30:38.084Z,13.45
2019-03-01T12:35:40.176Z,18.37
2019-03-01T12:40:42.567Z,24.67
2019-03-01T12:45:44.809Z,36.30
2019-03-01T12:50:46.928Z,48.87
2019-03-01T12:55:49.752Z,56.73
2019-03-01T13:00:52.102Z,68.90
2019-03-01T13:05:54.483Z,74.22
2019-03-01T13:10:56.639Z,72.37
2019-03-01T13:16:04.394Z,82.17
2019-03-01T13:21:09.570Z,79.95
2019-03-01T13:26:10.812Z,83.60
2019-03-01T13:31:12.882Z,78.07
2019-03-01T13:36:14.927Z,77.40
2019-03-01T13:41:16.978Z,82.10
2019-03-01T13:46:19.050Z,71.80
2019-03-01T13:51:21.160Z,86.97
2019-03-01T13:56:23.253Z,82.80
2019-03-01T14:01:27.075Z,83.47
2019-03-01T14:06:29.379Z,85.50
2019-03-01T14:11:31.639Z,89.30
2019-03-01T14:16:33.727Z,85.60
2019-03-01T14:21:35.838Z,98.05
2019-03-01T14:26:37.972Z,98.92
2019-03-01T14:31:43.010Z,93.75
2019-03-01T14:36:44.021Z,97.10
2019-03-01T14:41:46.099Z,86.47
2019-03-01T14:46:48.153Z,84.62
2019-03-01T14:51:50.205Z,87.50
2019-03-01T14:56:57.299Z,80.47
2019-03-01T15:02:40.767Z,86.87
2019-03-01T15:07:42.874Z,76.17
2019-03-01T15:12:44.978Z,81.12
2019-03-01T15:17:47.064Z,84.10
2019-03-01T15:22:49.663Z,81.02
2019-03-01T15:27:52.123Z,76.05
2019-03-01T15:32:54.299Z,89.67
2019-03-01T15:37:56.411Z,90.05
2019-03-01T15:42:58.632Z,84.22
2019-03-01T15:48:01.986Z,75.05
2019-03-01T15:53:04.781Z,87.05
2019-03-01T15:58:06.864Z,94.97
2019-03-01T16:03:09.106Z,106.47
2019-03-01T16:08:11.145Z,98.22
2019-03-01T16:13:13.364Z,97.35
2019-03-01T16:18:15.469Z,96.80
2019-03-01T16:23:17.603Z,86.12
2019-03-01T16:28:19.968Z,96.22
2019-03-01T16:33:22.510Z,86.85
2019-03-01T16:38:25.958Z,97.20
2019-03-01T16:43:28.576Z,82.25
2019-03-01T16:48:32.993Z,85.00
2019-03-01T16:53:36.721Z,72.53
2019-03-01T16:58:39.065Z,81.12
2019-03-01T17:03:41.140Z,80.07
2019-03-01T17:08:43.226Z,75.65
2019-03-01T17:13:45.583Z,79.22
2019-03-01T17:18:48.576Z,70.15
2019-03-01T17:23:54.689Z,75.10
2019-03-01T17:28:59.675Z,67.30
2019-03-01T17:34:00.846Z,59.67
2019-03-01T17:39:05.362Z,65.08
2019-03-01T17:44:08.671Z,58.13
2019-03-01T17:49:11.764Z,59.48
2019-03-01T17:54:13.879Z,64.25
2019-03-01T17:59:16.346Z,57.85
2019-03-01T18:04:18.423Z,61.08
2019-03-01T18:09:20.490Z,55.63
2019-03-01T18:14:22.835Z,53.65
2019-03-01T18:19:26.630Z,52.10
2019-03-01T18:24:28.955Z,46.02
2019-03-01T18:29:31.621Z,52.67
2019-03-01T18:34:36.366Z,46.08
2019-03-01T18:39:38.228Z,44.88
2019-03-01T18:44:41.688Z,47.70
2019-03-01T18:49:43.821Z,36.77
2019-03-01T18:54:45.881Z,41.92
2019-03-01T18:59:47.917Z,36.95
2019-03-01T19:04:50.527Z,35.30
2019-03-01T19:09:53.234Z,33.73
2019-03-01T19:14:55.376Z,34.35
2019-03-01T19:19:57.501Z,38.90
2019-03-01T19:24:59.911Z,38.48
2019-03-01T19:30:02.029Z,33.48
2019-03-01T19:35:04.281Z,25.10
2019-03-01T19:40:10.862Z,30.95
2019-03-01T19:45:14.462Z,31.73
2019-03-01T19:50:17.477Z,37.95
2019-03-01T19:55:19.499Z,45.35
2019-03-01T20:00:22.813Z,44.23
2019-03-01T20:05:27.813Z,48.98
2019-03-01T20:10:29.485Z,49.65
2019-03-01T20:15:31.561Z,52.10
2019-03-01T20:20:34.381Z,56.28
2019-03-01T20:25:36.593Z,53.17
2019-03-01T20:30:38.905Z,46.73
2019-03-01T20:35:40.982Z,46.20
2019-03-01T20:40:43.052Z,43.45
2019-03-01T20:45:45.154Z,34.15
2019-03-01T20:50:47.704Z,35.45
2019-03-01T20:55:51.241Z,34.23
2019-03-01T21:00:53.319Z,32.38
2019-03-01T21:05:55.414Z,31.77
2019-03-01T21:10:57.466Z,31.85
2019-03-01T21:15:59.565Z,31.50
2019-03-01T21:21:01.659Z,36.55
2019-03-01T21:26:03.745Z,34.08
2019-03-01T21:31:05.876Z,38.20
2019-03-01T21:36:08.001Z,41.58
2019-03-01T21:41:11.137Z,42.45
2019-03-01T21:46:13.237Z,41.45
2019-03-01T21:51:18.480Z,43.45
2019-03-01T21:56:19.471Z,42.15
2019-03-01T22:01:21.513Z,48.67
2019-03-01T22:06:23.960Z,44.75
2019-03-01T22:11:26.836Z,43.38
2019-03-01T22:16:28.924Z,41.15
2019-03-01T22:21:31.322Z,44.55
2019-03-01T22:26:33.533Z,46.98
2019-03-01T22:31:36.268Z,43.00
2019-03-01T22:36:38.370Z,48.23
2019-03-01T22:41:40.865Z,48.15
2019-03-01T22:46:43.270Z,45.85
2019-03-01T22:51:45.444Z,44.42
2019-03-01T22:56:48.416Z,38.65
2019-03-01T23:01:54.640Z,41.60
2019-03-01T23:06:57.047Z,43.83
2019-03-01T23:11:59.383Z,40.83
2019-03-01T23:17:01.480Z,40.80
2019-03-01T23:22:03.598Z,45.12
2019-03-01T23:27:05.695Z,46.20
2019-03-01T23:32:07.789Z,42.00
2019-03-01T23:37:09.856Z,40.95
2019-03-01T23:42:12.051Z,44.95
2019-03-01T23:47:14.104Z,44.77
2019-03-01T23:52:16.169Z,44.20
2019-03-01T23:57:18.279Z,49.05
